createdAt,value
2019-05-21T00:02:53.634Z,3.77
2019-05-21T00:07:10.127Z,5.53
2019-05-21T00:11:26.681Z,5.23
2019-05-21T00:15:43.080Z,4.40
2019-05-21T00:19:59.522Z,2.77
2019-05-21T00:24:16.452Z,2.83
2019-05-21T00:28:37.515Z,6.20
2019-05-21T00:33:50.590Z,4.17
2019-05-21T00:39:03.619Z,7.00
2019-05-21T00:43:44.162Z,4.47
2019-05-21T00:48:00.938Z,6.57
2019-05-21T00:52:17.762Z,9.27
2019-05-21T00:56:34.284Z,6.07
2019-05-21T01:00:50.787Z,5.80
2019-05-21T01:05:07.545Z,4.33
2019-05-21T01:09:23.986Z,2.90
2019-05-21T01:13:40.424Z,2.87
2019-05-21T01:17:56.937Z,7.77
2019-05-21T01:22:13.627Z,7.63
2019-05-21T01:26:30.099Z,5.60
2019-05-21T01:30:46.548Z,7.27
2019-05-21T01:35:16.920Z,4.50
2019-05-21T01:39:23.181Z,3.17
2019-05-21T01:43:39.625Z,3.50
2019-05-21T01:47:56.107Z,2.53
2019-05-21T01:52:12.539Z,2.33
2019-05-21T01:56:28.986Z,5.23
2019-05-21T02:00:45.440Z,5.13
2019-05-21T02:05:04.793Z,3.40
2019-05-21T02:09:21.260Z,4.60
2019-05-21T02:13:37.696Z,5.63
2019-05-21T02:17:54.165Z,5.17
2019-05-21T02:22:10.628Z,4.60
2019-05-21T02:26:27.083Z,5.30
2019-05-21T02:30:43.509Z,5.33
2019-05-21T02:35:00.059Z,3.37
2019-05-21T02:39:16.568Z,4.47
2019-05-21T02:43:33.234Z,3.73
2019-05-21T02:47:49.688Z,3.70
2019-05-21T02:52:06.230Z,3.40
2019-05-21T02:56:22.727Z,3.07
2019-05-21T03:00:41.164Z,3.60
2019-05-21T03:04:57.625Z,2.60
2019-05-21T03:09:14.061Z,2.83
2019-05-21T03:13:30.782Z,3.70
2019-05-21T03:17:47.304Z,6.10
2019-05-21T03:22:03.757Z,7.40
2019-05-21T03:26:20.272Z,6.67
2019-05-21T03:30:36.742Z,5.00
2019-05-21T03:34:53.196Z,3.27
2019-05-21T03:39:10.413Z,4.73
2019-05-21T03:43:27.183Z,5.30
2019-05-21T03:47:43.698Z,4.93
2019-05-21T03:52:00.148Z,3.93
2019-05-21T03:56:16.823Z,3.57
2019-05-21T04:00:33.342Z,3.80
2019-05-21T04:04:49.975Z,6.30
2019-05-21T04:09:07.758Z,5.10
2019-05-21T04:13:24.350Z,5.30
2019-05-21T04:17:43.187Z,4.73
2019-05-21T04:21:59.808Z,7.00
2019-05-21T04:26:16.435Z,6.83
2019-05-21T04:30:46.280Z,5.60
2019-05-21T04:35:04.882Z,4.27
2019-05-21T04:39:21.535Z,4.67
2019-05-21T04:43:38.277Z,4.20
2019-05-21T04:47:54.945Z,3.73
2019-05-21T04:52:11.477Z,4.37
2019-05-21T04:56:28.125Z,4.23
2019-05-21T05:00:45.035Z,6.93
2019-05-21T05:05:03.110Z,10.17
2019-05-21T05:09:19.605Z,6.03
2019-05-21T05:13:36.470Z,8.45
2019-05-21T05:17:52.939Z,5.90
2019-05-21T05:22:09.591Z,8.87
2019-05-21T05:26:26.105Z,8.57
2019-05-21T05:30:42.585Z,8.13
2019-05-21T05:34:59.217Z,7.90
2019-05-21T05:39:15.758Z,9.60
2019-05-21T05:43:32.238Z,7.77
2019-05-21T05:47:48.778Z,9.57
2019-05-21T05:52:05.416Z,9.33
2019-05-21T05:56:21.941Z,8.13
2019-05-21T06:00:38.498Z,7.60
2019-05-21T06:04:55.517Z,8.30
2019-05-21T06:09:12.052Z,9.23
2019-05-21T06:13:28.574Z,6.73
2019-05-21T06:17:45.071Z,9.37
2019-05-21T06:22:01.897Z,15.17
2019-05-21T06:26:18.424Z,15.73
2019-05-21T06:30:35.064Z,7.17
2019-05-21T06:34:51.959Z,7.47
2019-05-21T06:39:08.538Z,10.43
2019-05-21T06:43:25.110Z,12.50
2019-05-21T06:48:05.381Z,14.10
2019-05-21T06:52:51.214Z,15.07
2019-05-21T06:57:25.588Z,14.57
2019-05-21T07:01:54.235Z,12.77
2019-05-21T07:06:10.939Z,8.77
2019-05-21T07:10:27.394Z,8.43
2019-05-21T07:14:43.853Z,9.50
2019-05-21T07:19:00.389Z,9.37
2019-05-21T07:23:16.937Z,9.57
2019-05-21T07:27:33.691Z,8.50
2019-05-21T07:31:50.257Z,10.03
2019-05-21T07:36:06.954Z,8.23
2019-05-21T07:40:23.418Z,7.60
2019-05-21T07:44:39.888Z,8.77
2019-05-21T07:48:56.405Z,9.93
2019-05-21T07:53:12.930Z,11.00
2019-05-21T07:57:29.478Z,9.27
2019-05-21T08:01:46.244Z,12.20
2019-05-21T08:06:03.112Z,12.00
2019-05-21T08:10:19.613Z,11.87
2019-05-21T08:14:36.163Z,10.93
2019-05-21T08:18:52.722Z,11.30
2019-05-21T08:23:09.214Z,10.90
2019-05-21T08:27:26.062Z,12.77
2019-05-21T08:31:42.604Z,12.50
2019-05-21T08:35:59.206Z,11.57
2019-05-21T08:40:17.249Z,8.93
2019-05-21T08:44:33.708Z,8.23
2019-05-21T08:48:50.159Z,7.50
2019-05-21T08:53:07.122Z,7.97
2019-05-21T08:57:23.610Z,10.20
2019-05-21T09:01:40.055Z,11.27
2019-05-21T09:05:56.870Z,11.97
2019-05-21T09:10:14.947Z,11.10
2019-05-21T09:14:31.587Z,9.80
2019-05-21T09:18:48.043Z,11.50
2019-05-21T09:23:04.983Z,8.60
2019-05-21T09:27:21.457Z,13.43
2019-05-21T09:31:38.311Z,11.67
2019-05-21T09:35:54.767Z,10.77
2019-05-21T09:40:12.474Z,11.27
2019-05-21T09:44:28.938Z,11.77
2019-05-21T09:48:45.413Z,12.20
2019-05-21T09:53:02.252Z,10.70
2019-05-21T09:57:20.647Z,10.33
2019-05-21T10:01:39.044Z,12.03
2019-05-21T10:05:55.640Z,9.33
2019-05-21T10:10:12.582Z,9.27
2019-05-21T10:14:29.161Z,11.77
2019-05-21T10:18:46.097Z,12.80
2019-05-21T10:23:02.640Z,12.37
2019-05-21T10:27:19.274Z,10.90
2019-05-21T10:31:35.792Z,11.60
2019-05-21T10:35:52.414Z,10.20
2019-05-21T10:40:09.761Z,10.87
2019-05-21T10:44:26.271Z,10.60
2019-05-21T10:48:42.736Z,11.83
2019-05-21T10:52:59.284Z,10.43
2019-05-21T10:57:15.799Z,11.03
2019-05-21T11:01:49.381Z,9.70
2019-05-21T11:06:09.997Z,10.90
2019-05-21T11:10:24.890Z,11.37
2019-05-21T11:14:41.342Z,12.90
2019-05-21T11:18:57.778Z,10.93
2019-05-21T11:23:14.504Z,12.43
2019-05-21T11:27:31.265Z,11.17
2019-05-21T11:31:56.484Z,11.97
2019-05-21T11:36:06.244Z,12.07
2019-05-21T11:40:25.325Z,10.13
2019-05-21T11:44:41.905Z,9.40
2019-05-21T11:48:59.250Z,7.93
2019-05-21T11:53:15.724Z,8.00
2019-05-21T11:57:32.288Z,8.37
2019-05-21T12:01:49.030Z,9.80
2019-05-21T12:06:05.724Z,7.87
2019-05-21T12:10:23.400Z,8.47
2019-05-21T12:14:39.825Z,8.37
2019-05-21T12:18:56.491Z,6.90
2019-05-21T12:23:13.214Z,7.55
2019-05-21T12:27:29.757Z,7.55
2019-05-21T12:31:46.679Z,8.57
2019-05-21T12:36:04.290Z,7.90
2019-05-21T12:40:21.145Z,7.50
2019-05-21T12:44:37.790Z,7.27
2019-05-21T12:48:54.540Z,6.33
2019-05-21T12:53:11.387Z,6.37
2019-05-21T12:57:28.025Z,6.57
2019-05-21T13:01:44.825Z,6.27
2019-05-21T13:06:04.397Z,6.10
2019-05-21T13:10:21.572Z,5.97
2019-05-21T13:14:38.204Z,5.50
2019-05-21T13:18:54.761Z,6.00
2019-05-21T13:23:11.531Z,5.10
2019-05-21T13:27:28.486Z,5.05
2019-05-21T13:31:45.046Z,4.42
2019-05-21T13:36:01.905Z,4.72
2019-05-21T13:40:19.909Z,5.83
2019-05-21T13:44:36.652Z,5.53
2019-05-21T13:48:53.106Z,4.78
2019-05-21T13:53:09.823Z,4.87
2019-05-21T13:57:26.489Z,4.92
2019-05-21T14:01:43.080Z,4.10
2019-05-21T14:05:59.812Z,4.70
2019-05-21T14:10:19.838Z,4.45
2019-05-21T14:14:36.359Z,4.72
2019-05-21T14:18:52.881Z,4.83
2019-05-21T14:23:09.431Z,4.25
2019-05-21T14:27:41.694Z,4.30
2019-05-21T14:31:44.375Z,3.42
2019-05-21T14:36:08.816Z,3.67
2019-05-21T14:40:31.841Z,4.35
2019-05-21T14:44:44.821Z,4.50
2019-05-21T14:49:01.264Z,3.98
2019-05-21T14:53:17.926Z,3.75
2019-05-21T14:57:34.413Z,3.83
2019-05-21T15:01:50.956Z,4.42
2019-05-21T15:06:07.554Z,4.78
2019-05-21T15:10:24.167Z,4.50
2019-05-21T15:14:40.670Z,4.37
2019-05-21T15:18:57.342Z,4.40
2019-05-21T15:23:14.038Z,4.45
2019-05-21T15:27:31.738Z,4.90
2019-05-21T15:31:48.384Z,4.40
2019-05-21T15:36:05.292Z,4.10
2019-05-21T15:40:22.330Z,4.33
2019-05-21T15:44:39.421Z,3.90
2019-05-21T15:48:55.970Z,4.00
2019-05-21T15:53:13.182Z,4.53
2019-05-21T15:57:30.105Z,4.27
2019-05-21T16:01:46.581Z,3.80
2019-05-21T16:06:03.560Z,4.00
2019-05-21T16:10:20.583Z,3.97
2019-05-21T16:14:37.321Z,5.00
2019-05-21T16:18:53.960Z,5.07
2019-05-21T16:23:10.478Z,5.33
2019-05-21T16:27:27.322Z,5.10
2019-05-21T16:31:43.803Z,4.43
2019-05-21T16:36:00.378Z,5.80
2019-05-21T16:40:17.967Z,5.60
2019-05-21T16:44:34.482Z,5.63
2019-05-21T16:48:50.978Z,6.07
2019-05-21T16:53:07.529Z,5.30
2019-05-21T16:57:24.002Z,6.63
2019-05-21T17:01:40.872Z,5.73
2019-05-21T17:05:57.495Z,5.80
2019-05-21T17:10:14.302Z,6.67
2019-05-21T17:14:30.822Z,5.80
2019-05-21T17:18:47.416Z,5.30
2019-05-21T17:23:04.370Z,5.50
2019-05-21T17:27:21.385Z,5.70
2019-05-21T17:31:37.931Z,5.33
2019-05-21T17:35:54.463Z,4.83
2019-05-21T17:40:13.216Z,5.00
2019-05-21T17:44:29.832Z,4.20
2019-05-21T17:48:46.564Z,4.20
2019-05-21T17:53:03.196Z,4.60
2019-05-21T17:57:20.470Z,4.90
2019-05-21T18:01:37.107Z,5.17
2019-05-21T18:05:55.461Z,6.57
2019-05-21T18:10:15.476Z,8.97
2019-05-21T18:14:32.527Z,10.63
2019-05-21T18:18:51.073Z,15.17
2019-05-21T18:23:07.993Z,15.93
2019-05-21T18:27:26.402Z,16.23
2019-05-21T18:31:43.383Z,15.43
2019-05-21T18:36:05.487Z,17.67
2019-05-21T18:40:23.113Z,19.00
2019-05-21T18:44:39.706Z,18.13
2019-05-21T18:48:57.229Z,19.27
2019-05-21T18:53:14.025Z,18.23
2019-05-21T18:57:39.550Z,19.03
2019-05-21T19:02:06.944Z,17.23
2019-05-21T19:06:26.061Z,17.87
2019-05-21T19:10:42.732Z,18.77
2019-05-21T19:15:05.286Z,19.27
2019-05-21T19:19:24.184Z,17.77
2019-05-21T19:23:44.205Z,16.93
2019-05-21T19:28:02.960Z,16.03
2019-05-21T19:32:25.380Z,12.80
2019-05-21T19:36:47.854Z,11.43
2019-05-21T19:41:05.069Z,11.33
2019-05-21T19:45:24.616Z,13.67
2019-05-21T19:49:42.101Z,16.03
2019-05-21T19:53:59.017Z,17.57
2019-05-21T19:58:15.821Z,16.10
2019-05-21T20:02:32.978Z,18.63
2019-05-21T20:06:50.842Z,17.70
2019-05-21T20:11:08.569Z,15.57
2019-05-21T20:15:27.513Z,17.17
2019-05-21T20:19:49.662Z,16.10
2019-05-21T20:24:08.288Z,16.73
2019-05-21T20:28:25.244Z,15.60
2019-05-21T20:32:43.476Z,16.00
2019-05-21T20:37:00.559Z,15.53
2019-05-21T20:41:17.878Z,14.53
2019-05-21T20:45:57.071Z,13.40
2019-05-21T20:50:15.760Z,12.13
2019-05-21T20:54:32.809Z,13.07
2019-05-21T20:58:49.458Z,10.83
2019-05-21T21:03:07.761Z,11.33
2019-05-21T21:07:25.136Z,12.33
2019-05-21T21:11:42.547Z,9.57
2019-05-21T21:15:59.400Z,10.93
2019-05-21T21:20:16.160Z,10.63
2019-05-21T21:24:32.775Z,9.73
2019-05-21T21:28:49.470Z,10.30
2019-05-21T21:33:07.894Z,9.37
2019-05-21T21:37:24.825Z,10.83
2019-05-21T21:41:41.261Z,9.90
2019-05-21T21:45:58.214Z,9.50
2019-05-21T21:50:16.479Z,10.10
2019-05-21T21:54:33.348Z,10.80
2019-05-21T21:58:50.100Z,11.20
2019-05-21T22:03:08.922Z,11.57
2019-05-21T22:07:27.093Z,9.73
2019-05-21T22:11:44.746Z,11.37
2019-05-21T22:16:01.959Z,9.30
2019-05-21T22:20:18.498Z,9.67
2019-05-21T22:24:35.271Z,10.53
2019-05-21T22:28:54.043Z,9.57
2019-05-21T22:33:11.479Z,10.47
2019-05-21T22:37:29.350Z,10.87
2019-05-21T22:41:45.868Z,10.87
2019-05-21T22:46:02.810Z,9.73
2019-05-21T22:50:19.387Z,9.30
2019-05-21T22:54:35.895Z,10.20
2019-05-21T22:58:52.381Z,8.67
2019-05-21T23:03:09.287Z,10.67
2019-05-21T23:07:26.099Z,10.40
2019-05-21T23:11:42.643Z,8.60
2019-05-21T23:15:59.100Z,7.40
2019-05-21T23:20:16.465Z,9.00
2019-05-21T23:24:33.607Z,11.33
2019-05-21T23:28:50.819Z,10.40
2019-05-21T23:33:09.502Z,13.97
2019-05-21T23:37:26.754Z,13.83
2019-05-21T23:41:44.620Z,13.33
2019-05-21T23:46:01.218Z,14.37
2019-05-21T23:50:19.535Z,11.27
2019-05-21T23:54:36.066Z,18.47
2019-05-21T23:58:53.091Z,17.37
